Brady, TX

9:59 PM CDT on May 25, 2018 (GMT -0500)
Curtis

Weather History for KBBD - May, 2013

Change the Weather History Date:

Saturday, May 18, 2013

  Actual Average (KJCT) Record (KJCT)
Temperature  
Mean Temperature 82 °F -  
Max Temperature 93 °F 85 °F 100 °F (2003)
Min Temperature 71 °F 61 °F 50 °F (2008)
Cooling Degree Days 17    
Growing Degree Days 32 (Base 50)    
Moisture  
Dew Point 67 °F    
Average Humidity 61    
Maximum Humidity 94    
Minimum Humidity 38    
Precipitation  
Precipitation 0.00 in - - ()
Sea Level Pressure  
Sea Level Pressure 29.85 in    
Wind  
Wind Speed 13 mph (SSE)    
Max Wind Speed 20 mph    
Max Gust Speed 26 mph    
Visibility 10 miles    
Events      
Averages and records for this station are not official NWS values.
T = Trace of Precipitation, MM = Missing Value Source: NWS Daily Summary

Daily Weather History Graph

Daily Weather History Graph

Search for Another Location

Airport or City:

Astronomy

May. 18, 2013 Rise Set
Actual Time 6:39 AM CDT 8:28 PM CDT
Civil Twilight 6:12 AM CDT 8:55 PM CDT
Nautical Twilight 5:40 AM CDT 9:27 PM CDT
Astronomical Twilight 5:06 AM CDT 10:01 PM CDT
Moon 1:58 PM CDT (5/18) 2:05 AM CDT (5/18)
Length of Visible Light 14h 42m
Length of Day
13h 48m
First Quarter, 55% of the Moon is Illuminated
May 18
First Quarter
May 24
Full
May 31
Last Quarter
Jun 8
New
Jun 16
First Quarter

Hourly Weather History & Observations

Time (CDT) Temp. Heat Index Dew Point Humidity Pressure Visibility Wind Dir Wind Speed Gust Speed Precip Events Conditions
12:15 AM 82.4 °F 84.6 °F 66.2 °F 58% 29.88 in 10.0 mi SSE 12.7 mph - N/A   Clear
12:35 AM 80.6 °F 83.2 °F 68.0 °F 65% 29.87 in 10.0 mi SSE 12.7 mph - N/A   Clear
12:55 AM 80.6 °F 83.9 °F 69.8 °F 70% 29.87 in 10.0 mi SE 11.5 mph - N/A   Clear
1:15 AM 80.6 °F 83.9 °F 69.8 °F 70% 29.87 in 10.0 mi SSE 10.4 mph - N/A   Clear
1:35 AM 78.8 °F - 69.8 °F 74% 29.86 in 10.0 mi SSE 11.5 mph - N/A   Clear
1:55 AM 78.8 °F - 71.6 °F 78% 29.86 in 10.0 mi SSE 10.4 mph - N/A   Clear
2:15 AM 78.8 °F - 71.6 °F 78% 29.86 in 10.0 mi SSE 11.5 mph - N/A   Clear
2:35 AM 77.0 °F - 71.6 °F 83% 29.85 in 10.0 mi SSE 10.4 mph - N/A   Clear
2:55 AM 77.0 °F - 71.6 °F 83% 29.86 in 10.0 mi SSE 9.2 mph - N/A   Clear
3:15 AM 75.2 °F - 71.6 °F 89% 29.86 in 9.0 mi SSE 8.1 mph - N/A   Clear
3:35 AM 75.2 °F - 71.6 °F 89% 29.85 in 9.0 mi SSE 8.1 mph - N/A   Clear
3:55 AM 75.2 °F - 71.6 °F 89% 29.86 in 9.0 mi SSE 9.2 mph - N/A   Clear
4:15 AM 73.4 °F - 71.6 °F 94% 29.85 in 9.0 mi SSE 11.5 mph - N/A   Clear
4:35 AM 73.4 °F - 69.8 °F 88% 29.86 in 9.0 mi SSE 8.1 mph - N/A   Clear
4:55 AM 73.4 °F - 69.8 °F 88% 29.87 in 9.0 mi South 9.2 mph - N/A   Clear
5:15 AM 73.4 °F - 68.0 °F 83% 29.87 in 10.0 mi South 12.7 mph - N/A   Clear
5:35 AM 73.4 °F - 66.2 °F 78% 29.87 in 10.0 mi South 9.2 mph - N/A   Clear
5:55 AM 71.6 °F - 66.2 °F 83% 29.87 in 10.0 mi South 11.5 mph - N/A   Clear
6:15 AM 71.6 °F - 66.2 °F 83% 29.88 in 10.0 mi SSE 9.2 mph - N/A   Clear
6:35 AM 71.6 °F - 66.2 °F 83% 29.87 in 10.0 mi SSE 10.4 mph - N/A   Clear
6:55 AM 71.6 °F - 66.2 °F 83% 29.88 in 10.0 mi South 10.4 mph - N/A   Clear
7:15 AM 71.6 °F - 66.2 °F 83% 29.89 in 9.0 mi South 11.5 mph - N/A   Clear
7:35 AM 73.4 °F - 66.2 °F 78% 29.89 in 9.0 mi South 10.4 mph - N/A   Clear
7:55 AM 73.4 °F - 66.2 °F 78% 29.89 in 9.0 mi South 12.7 mph - N/A   Clear
8:15 AM 73.4 °F - 66.2 °F 78% 29.89 in 10.0 mi South 12.7 mph - N/A   Clear
8:35 AM 73.4 °F - 66.2 °F 78% 29.89 in 9.0 mi SSE 12.7 mph - N/A   Clear
8:55 AM 75.2 °F - 66.2 °F 73% 29.89 in 9.0 mi SSE 12.7 mph - N/A   Clear
9:15 AM 78.8 °F - 66.2 °F 65% 29.89 in 10.0 mi SSE 15.0 mph - N/A   Clear
9:35 AM 78.8 °F - 66.2 °F 65% 29.90 in 10.0 mi SSE 16.1 mph - N/A   Clear
9:55 AM 78.8 °F - 66.2 °F 65% 29.90 in 10.0 mi SSE 16.1 mph - N/A   Clear
10:15 AM 82.4 °F 84.6 °F 66.2 °F 58% 29.90 in 10.0 mi South 15.0 mph - N/A   Clear
10:35 AM 82.4 °F 85.4 °F 68.0 °F 62% 29.90 in 10.0 mi South 15.0 mph - N/A   Clear
10:55 AM 82.4 °F 85.4 °F 68.0 °F 62% 29.89 in 10.0 mi SSE 16.1 mph - N/A   Clear
11:15 AM 86.0 °F 89.4 °F 68.0 °F 55% 29.89 in 10.0 mi SSE 17.3 mph 26.5 mph N/A   Clear
11:35 AM 86.0 °F 88.2 °F 66.2 °F 51% 29.89 in 10.0 mi SSE 16.1 mph - N/A   Clear
11:55 AM 87.8 °F 91.4 °F 68.0 °F 52% 29.89 in 10.0 mi SSE 18.4 mph - N/A   Clear
12:15 PM 87.8 °F 91.4 °F 68.0 °F 52% 29.88 in 10.0 mi SSE 13.8 mph - N/A   Clear
12:35 PM 87.8 °F 91.4 °F 68.0 °F 52% 29.88 in 10.0 mi SSE 17.3 mph - N/A   Clear
12:55 PM 87.8 °F 91.4 °F 68.0 °F 52% 29.87 in 10.0 mi South 16.1 mph - N/A   Clear
1:15 PM 87.8 °F 91.4 °F 68.0 °F 52% 29.87 in 10.0 mi South 15.0 mph - N/A   Clear
1:35 PM 87.8 °F 91.4 °F 68.0 °F 52% 29.87 in 9.0 mi SSE 10.4 mph - N/A   Clear
2:15 PM 91.4 °F 95.4 °F 68.0 °F 46% 29.84 in 8.0 mi SSE 15.0 mph - N/A   Clear
2:35 PM 93.2 °F 96.2 °F 66.2 °F 41% 29.83 in 10.0 mi SSE 16.1 mph - N/A   Clear
2:55 PM 93.2 °F 94.9 °F 64.4 °F 38% 29.83 in 10.0 mi South 17.3 mph - N/A   Clear
3:15 PM 93.2 °F 96.2 °F 66.2 °F 41% 29.82 in 10.0 mi SE 17.3 mph - N/A   Clear
3:35 PM 93.2 °F 96.2 °F 66.2 °F 41% 29.82 in 10.0 mi SSE 16.1 mph - N/A   Clear
3:55 PM 93.2 °F 96.2 °F 66.2 °F 41% 29.82 in 10.0 mi SSE 16.1 mph - N/A   Clear
4:15 PM 93.2 °F 96.2 °F 66.2 °F 41% 29.81 in 10.0 mi SE 16.1 mph - N/A   Clear
4:35 PM 93.2 °F 96.2 °F 66.2 °F 41% 29.81 in 10.0 mi South 16.1 mph - N/A   Clear
4:55 PM 91.4 °F 93.2 °F 64.4 °F 41% 29.80 in 10.0 mi South 16.1 mph - N/A   Clear
5:15 PM 93.2 °F 96.2 °F 66.2 °F 41% 29.80 in 10.0 mi South 15.0 mph - N/A   Clear
5:35 PM 91.4 °F 93.2 °F 64.4 °F 41% 29.80 in 7.0 mi SSE 13.8 mph - N/A   Clear
5:55 PM 91.4 °F 93.2 °F 64.4 °F 41% 29.79 in 10.0 mi SSE 19.6 mph - N/A   Clear
6:15 PM 91.4 °F 93.2 °F 64.4 °F 41% 29.79 in 10.0 mi SE 17.3 mph - N/A   Clear
6:35 PM 89.6 °F 91.1 °F 64.4 °F 43% 29.79 in 10.0 mi SSE 17.3 mph - N/A   Clear
6:55 PM 89.6 °F 91.1 °F 64.4 °F 43% 29.78 in 10.0 mi SSE 13.8 mph - N/A   Clear
7:15 PM 87.8 °F 89.4 °F 64.4 °F 46% 29.78 in 10.0 mi SSE 18.4 mph - N/A   Clear
7:35 PM 87.8 °F 89.4 °F 64.4 °F 46% 29.78 in 10.0 mi SSE 18.4 mph - N/A   Clear
7:55 PM 87.8 °F 89.4 °F 64.4 °F 46% 29.79 in 10.0 mi SE 13.8 mph - N/A   Clear
8:15 PM 87.8 °F 89.4 °F 64.4 °F 46% 29.80 in 10.0 mi SSE 11.5 mph - N/A   Clear
8:35 PM 86.0 °F 87.3 °F 64.4 °F 48% 29.80 in 10.0 mi SSE 9.2 mph - N/A   Clear
8:55 PM 84.2 °F 85.6 °F 64.4 °F 51% 29.80 in 10.0 mi SSE 10.4 mph - N/A   Clear
9:15 PM 84.2 °F 85.6 °F 64.4 °F 51% 29.80 in 10.0 mi SSE 11.5 mph - N/A   Clear
9:35 PM 84.2 °F 85.6 °F 64.4 °F 51% 29.80 in 10.0 mi SSE 13.8 mph - N/A   Clear
9:55 PM 82.4 °F 83.9 °F 64.4 °F 54% 29.81 in 10.0 mi South 10.4 mph - N/A   Clear
10:15 PM 82.4 °F 83.9 °F 64.4 °F 54% 29.81 in 10.0 mi SSE 13.8 mph - N/A   Clear
10:35 PM 82.4 °F 83.9 °F 64.4 °F 54% 29.81 in 10.0 mi SSE 12.7 mph - N/A   Clear
10:55 PM 80.6 °F 82.3 °F 64.4 °F 58% 29.82 in 10.0 mi SSE 11.5 mph - N/A   Clear
11:15 PM 80.6 °F 82.3 °F 64.4 °F 58% 29.82 in 10.0 mi SSE 16.1 mph - N/A   Clear
11:35 PM 78.8 °F - 64.4 °F 61% 29.82 in 10.0 mi SSE 16.1 mph - N/A   Clear
11:55 PM 78.8 °F - 64.4 °F 61% 29.82 in 10.0 mi SSE 15.0 mph - N/A   Clear